createdAt,value
2022-10-05T00:01:34.512Z,75.63
2022-10-05T00:04:28.263Z,75.39
2022-10-05T00:07:02.365Z,75.58
2022-10-05T00:09:33.313Z,75.39
2022-10-05T00:12:20.376Z,75.26
2022-10-05T00:14:53.491Z,75.27
2022-10-05T00:17:23.443Z,75.20
2022-10-05T00:19:54.197Z,75.17
2022-10-05T00:22:30.086Z,75.30
2022-10-05T00:25:01.477Z,75.19
2022-10-05T00:27:37.559Z,75.29
2022-10-05T00:30:27.090Z,75.12
2022-10-05T00:32:59.450Z,74.77
2022-10-05T00:35:29.552Z,74.83
2022-10-05T00:37:57.799Z,74.98
2022-10-05T00:40:50.748Z,74.98
2022-10-05T00:43:52.466Z,75.09
2022-10-05T00:46:30.560Z,74.89
2022-10-05T00:49:27.285Z,74.76
2022-10-05T00:52:29.607Z,74.75
2022-10-05T00:55:32.985Z,74.71
2022-10-05T00:58:19.307Z,74.95
2022-10-05T01:01:25.257Z,74.73
2022-10-05T01:04:40.733Z,74.76
2022-10-05T01:07:35.325Z,74.83
2022-10-05T01:10:24.925Z,74.91
2022-10-05T01:13:04.348Z,74.76
2022-10-05T01:15:54.621Z,74.64
2022-10-05T01:18:48.566Z,74.88
2022-10-05T01:21:28.494Z,74.77
2022-10-05T01:24:29.159Z,74.74
2022-10-05T01:28:01.836Z,74.54
2022-10-05T01:30:43.352Z,74.69
2022-10-05T01:33:48.092Z,74.63
2022-10-05T01:36:51.563Z,74.82
2022-10-05T01:39:34.981Z,74.54
2022-10-05T01:42:23.960Z,74.69
2022-10-05T01:45:25.353Z,74.62
2022-10-05T01:48:13.623Z,74.71
2022-10-05T01:50:54.030Z,74.73
2022-10-05T01:53:49.206Z,74.52
2022-10-05T01:56:50.950Z,74.37
2022-10-05T01:59:27.913Z,74.73
2022-10-05T02:02:09.628Z,74.81
2022-10-05T02:05:04.672Z,74.94
2022-10-05T02:07:46.095Z,75.07
2022-10-05T02:10:29.139Z,75.01
2022-10-05T02:13:38.496Z,75.13
2022-10-05T02:16:16.962Z,74.98
2022-10-05T02:19:08.483Z,74.96
2022-10-05T02:21:38.550Z,75.09
2022-10-05T02:24:20.609Z,75.00
2022-10-05T02:26:52.532Z,75.18
2022-10-05T02:29:26.381Z,75.28
2022-10-05T02:32:02.961Z,75.38
2022-10-05T02:34:40.719Z,75.53
2022-10-05T02:37:42.588Z,75.32
2022-10-05T02:40:44.701Z,75.43
2022-10-05T02:43:31.016Z,75.49
2022-10-05T02:46:37.949Z,75.74
2022-10-05T02:49:34.424Z,76.10
2022-10-05T02:52:45.279Z,75.86
2022-10-05T02:55:26.564Z,75.89
2022-10-05T02:58:23.829Z,76.13
2022-10-05T03:01:49.388Z,76.06
2022-10-05T03:04:38.799Z,76.21
2022-10-05T03:07:46.325Z,76.24
2022-10-05T03:10:37.234Z,76.27
2022-10-05T03:13:54.659Z,76.35
2022-10-05T03:17:02.915Z,76.43
2022-10-05T03:20:14.601Z,76.44
2022-10-05T03:23:05.004Z,76.47
2022-10-05T03:25:54.227Z,76.57
2022-10-05T03:28:45.850Z,76.56
2022-10-05T03:31:38.253Z,76.70
2022-10-05T03:34:53.963Z,76.70
2022-10-05T03:37:39.129Z,77.00
2022-10-05T03:40:22.187Z,76.75
2022-10-05T03:43:02.485Z,76.88
2022-10-05T03:45:46.929Z,77.08
2022-10-05T03:48:28.889Z,77.10
2022-10-05T03:51:24.832Z,77.23
2022-10-05T03:54:30.997Z,77.29
2022-10-05T03:57:10.545Z,77.17
2022-10-05T04:00:16.069Z,77.32
2022-10-05T04:03:08.076Z,77.63
2022-10-05T04:05:47.214Z,77.32
2022-10-05T04:08:43.029Z,77.89
2022-10-05T04:11:42.458Z,77.59
2022-10-05T04:14:16.008Z,77.90
2022-10-05T04:16:49.639Z,77.71
2022-10-05T04:19:41.653Z,77.80
2022-10-05T04:22:32.112Z,77.94
2022-10-05T04:25:32.127Z,77.69
2022-10-05T04:28:35.166Z,77.59
2022-10-05T04:31:10.434Z,77.80
2022-10-05T04:33:38.609Z,77.98
2022-10-05T04:36:22.287Z,78.02
2022-10-05T04:38:59.506Z,77.98
2022-10-05T04:41:40.081Z,78.67
2022-10-05T04:44:23.577Z,78.80
2022-10-05T04:47:06.036Z,78.99
2022-10-05T04:49:52.974Z,78.66
2022-10-05T04:52:37.364Z,78.89
2022-10-05T04:55:52.340Z,78.86
2022-10-05T04:58:50.997Z,78.76
2022-10-05T05:01:25.082Z,78.77
2022-10-05T05:04:24.808Z,78.87
2022-10-05T05:07:37.698Z,78.86
2022-10-05T05:10:35.745Z,78.72
2022-10-05T05:13:50.200Z,78.72
2022-10-05T05:16:39.026Z,78.90
2022-10-05T05:19:38.984Z,79.33
2022-10-05T05:22:36.702Z,79.04
2022-10-05T05:25:52.313Z,78.85
2022-10-05T05:28:42.525Z,78.99
2022-10-05T05:31:28.507Z,78.68
2022-10-05T05:34:41.568Z,78.75
2022-10-05T05:37:39.113Z,78.61
2022-10-05T05:40:10.212Z,78.73
2022-10-05T05:43:23.652Z,78.84
2022-10-05T05:46:17.526Z,78.71
2022-10-05T05:48:47.506Z,78.78
2022-10-05T05:51:24.653Z,78.64
2022-10-05T05:54:18.114Z,78.63
2022-10-05T05:57:19.495Z,78.53
2022-10-05T06:00:38.698Z,78.30
2022-10-05T06:04:08.734Z,78.14
2022-10-05T06:06:43.193Z,77.84
2022-10-05T06:09:42.039Z,77.75
2022-10-05T06:12:28.425Z,77.43
2022-10-05T06:15:24.707Z,77.39
2022-10-05T06:18:00.187Z,76.99
2022-10-05T06:21:00.945Z,76.86
2022-10-05T06:23:48.984Z,76.35
2022-10-05T06:27:00.766Z,76.38
2022-10-05T06:30:07.327Z,76.28
2022-10-05T06:33:06.312Z,76.13
2022-10-05T06:35:55.513Z,75.88
2022-10-05T06:38:29.706Z,75.58
2022-10-05T06:41:13.038Z,75.71
2022-10-05T06:44:10.735Z,75.53
2022-10-05T06:47:23.327Z,75.13
2022-10-05T06:50:36.788Z,74.68
2022-10-05T06:54:10.917Z,74.55
2022-10-05T06:56:59.588Z,74.50
2022-10-05T07:00:04.057Z,74.50
2022-10-05T07:02:54.818Z,74.16
2022-10-05T07:06:02.280Z,74.03
2022-10-05T07:09:08.379Z,73.73
2022-10-05T07:12:03.852Z,73.27
2022-10-05T07:14:59.380Z,72.60
2022-10-05T07:18:09.552Z,72.46
2022-10-05T07:21:19.164Z,71.75
2022-10-05T07:24:42.549Z,71.82
2022-10-05T07:27:23.871Z,71.49
2022-10-05T07:30:08.019Z,71.23
2022-10-05T07:33:12.313Z,70.72
2022-10-05T07:36:50.862Z,70.92
2022-10-05T07:39:55.414Z,70.83
2022-10-05T07:42:51.738Z,70.52
2022-10-05T07:45:39.567Z,70.41
2022-10-05T07:48:33.163Z,69.39
2022-10-05T07:51:36.500Z,69.20
2022-10-05T07:54:17.009Z,69.32
2022-10-05T07:56:53.872Z,69.26
2022-10-05T07:59:35.740Z,68.90
2022-10-05T08:02:47.273Z,68.94
2022-10-05T08:05:28.485Z,68.66
2022-10-05T08:08:58.936Z,68.62
2022-10-05T08:12:25.487Z,68.51
2022-10-05T08:15:15.505Z,68.33
2022-10-05T08:18:05.916Z,68.23
2022-10-05T08:20:49.428Z,68.29
2022-10-05T08:23:50.779Z,68.09
2022-10-05T08:26:28.664Z,67.87
2022-10-05T08:29:13.943Z,67.82
2022-10-05T08:31:48.735Z,67.62
2022-10-05T08:34:26.000Z,66.98
2022-10-05T08:37:21.304Z,67.05
2022-10-05T08:40:00.813Z,67.25
2022-10-05T08:43:09.493Z,67.04
2022-10-05T08:46:01.280Z,66.48
2022-10-05T08:48:57.157Z,66.62
2022-10-05T08:51:37.542Z,65.84
2022-10-05T08:54:14.458Z,66.14
2022-10-05T08:57:38.996Z,65.67
2022-10-05T09:00:16.695Z,65.95
2022-10-05T09:03:45.707Z,66.14
2022-10-05T09:06:51.344Z,66.19
2022-10-05T09:09:49.971Z,66.41
2022-10-05T09:12:18.213Z,65.96
2022-10-05T09:15:01.510Z,65.17
2022-10-05T09:18:28.425Z,65.38
2022-10-05T09:21:14.806Z,65.18
2022-10-05T09:23:45.165Z,65.57
2022-10-05T09:26:45.638Z,65.65
2022-10-05T09:29:47.134Z,65.59
2022-10-05T09:33:06.207Z,65.65
2022-10-05T09:36:02.063Z,65.60
2022-10-05T09:39:09.503Z,65.33
2022-10-05T09:42:04.435Z,64.96
2022-10-05T09:45:03.465Z,65.18
2022-10-05T09:48:14.683Z,65.44
2022-10-05T09:51:02.483Z,64.87
2022-10-05T09:53:58.367Z,64.71
2022-10-05T09:57:18.920Z,64.80
2022-10-05T10:00:21.738Z,63.87
2022-10-05T10:03:45.852Z,63.85
2022-10-05T10:06:22.733Z,63.86
2022-10-05T10:09:35.174Z,63.87
2022-10-05T10:12:41.424Z,63.63
2022-10-05T10:15:50.162Z,63.71
2022-10-05T10:18:59.541Z,63.55
2022-10-05T10:22:14.664Z,63.49
2022-10-05T10:24:57.848Z,62.13
2022-10-05T10:27:59.131Z,62.43
2022-10-05T10:31:00.587Z,62.21
2022-10-05T10:33:52.617Z,61.78
2022-10-05T10:37:13.506Z,61.40
2022-10-05T10:40:43.060Z,61.53
2022-10-05T10:43:44.946Z,60.66
2022-10-05T10:47:05.956Z,60.59
2022-10-05T10:50:06.298Z,60.36
2022-10-05T10:53:21.304Z,60.86
2022-10-05T10:56:14.085Z,60.55
2022-10-05T10:58:54.048Z,60.03
2022-10-05T11:01:31.272Z,58.01
2022-10-05T11:04:14.024Z,58.55
2022-10-05T11:06:51.026Z,58.28
2022-10-05T11:09:34.682Z,57.93
2022-10-05T11:12:34.363Z,58.43
2022-10-05T11:15:51.656Z,58.16
2022-10-05T11:18:47.243Z,58.54
2022-10-05T11:21:31.840Z,58.58
2022-10-05T11:24:46.741Z,58.14
2022-10-05T11:27:26.487Z,57.49
2022-10-05T11:30:41.547Z,57.53
2022-10-05T11:34:03.349Z,57.55
2022-10-05T11:37:44.342Z,57.61
2022-10-05T11:40:36.978Z,56.61
2022-10-05T11:43:34.419Z,56.49
2022-10-05T11:46:24.703Z,56.67
2022-10-05T11:49:35.671Z,56.85
2022-10-05T11:52:26.352Z,56.65
2022-10-05T11:55:21.484Z,56.75
2022-10-05T11:58:07.626Z,56.41
2022-10-05T12:00:41.611Z,55.81
2022-10-05T12:03:52.003Z,55.31
2022-10-05T12:06:21.968Z,56.05
2022-10-05T12:09:18.237Z,56.03
2022-10-05T12:12:21.023Z,55.88
2022-10-05T12:15:17.468Z,56.31
2022-10-05T12:17:55.491Z,56.05
2022-10-05T12:20:38.344Z,55.48
2022-10-05T12:23:37.558Z,55.48
2022-10-05T12:26:14.998Z,55.93
2022-10-05T12:29:13.650Z,55.75
2022-10-05T12:32:08.771Z,55.87
2022-10-05T12:35:46.666Z,56.05
2022-10-05T12:38:37.263Z,55.88
2022-10-05T12:42:01.025Z,55.74
2022-10-05T12:44:55.618Z,55.38
2022-10-05T12:47:53.476Z,55.32
2022-10-05T12:50:38.367Z,55.09
2022-10-05T12:53:56.981Z,55.02
2022-10-05T12:56:46.892Z,55.22
2022-10-05T12:59:33.069Z,55.01
2022-10-05T13:02:44.467Z,54.89
2022-10-05T13:05:26.599Z,55.26
2022-10-05T13:08:09.534Z,55.09
2022-10-05T13:11:21.041Z,55.20
2022-10-05T13:14:13.972Z,55.39
2022-10-05T13:16:55.992Z,55.37
2022-10-05T13:19:44.591Z,54.95
2022-10-05T13:22:43.511Z,54.34
2022-10-05T13:25:14.343Z,54.68
2022-10-05T13:28:13.194Z,54.15
2022-10-05T13:30:51.896Z,54.75
2022-10-05T13:33:33.282Z,54.21
2022-10-05T13:36:15.334Z,54.37
2022-10-05T13:39:03.861Z,54.46
2022-10-05T13:42:15.696Z,54.46
2022-10-05T13:45:13.339Z,54.62
2022-10-05T13:47:53.020Z,54.29
2022-10-05T13:50:33.439Z,54.24
2022-10-05T13:53:29.714Z,54.50
2022-10-05T13:56:24.616Z,54.42
2022-10-05T13:59:36.422Z,54.46
2022-10-05T14:02:20.298Z,54.46
2022-10-05T14:04:57.635Z,54.53
2022-10-05T14:07:50.387Z,54.59
2022-10-05T14:10:43.652Z,54.62
2022-10-05T14:13:46.812Z,54.81
2022-10-05T14:16:24.004Z,54.73
2022-10-05T14:19:14.385Z,54.88
2022-10-05T14:22:03.156Z,55.07
2022-10-05T14:24:44.560Z,55.17
2022-10-05T14:27:33.312Z,55.16
2022-10-05T14:30:23.826Z,55.03
2022-10-05T14:33:03.902Z,54.95
2022-10-05T14:35:49.266Z,55.22
2022-10-05T14:38:29.943Z,55.28
2022-10-05T14:41:27.744Z,55.32
2022-10-05T14:44:06.113Z,55.38
2022-10-05T14:46:37.254Z,55.57
2022-10-05T14:49:37.488Z,55.78
2022-10-05T14:52:32.633Z,55.58
2022-10-05T14:56:01.557Z,55.83
2022-10-05T14:58:48.040Z,56.07
2022-10-05T15:01:34.019Z,56.01
2022-10-05T15:04:17.055Z,56.20
2022-10-05T15:07:04.200Z,56.37
2022-10-05T15:10:06.555Z,56.50
2022-10-05T15:12:46.934Z,56.55
2022-10-05T15:15:32.986Z,56.68
2022-10-05T15:18:15.056Z,56.88
2022-10-05T15:20:58.690Z,57.03
2022-10-05T15:23:41.166Z,57.11
2022-10-05T15:26:27.413Z,57.08
2022-10-05T15:29:17.792Z,57.21
2022-10-05T15:31:57.797Z,57.16
2022-10-05T15:34:45.102Z,57.38
2022-10-05T15:37:23.807Z,57.33
2022-10-05T15:40:08.495Z,57.51
2022-10-05T15:42:41.611Z,57.65
2022-10-05T15:45:19.609Z,57.64
2022-10-05T15:47:57.372Z,57.82
2022-10-05T15:50:37.733Z,57.77
2022-10-05T15:53:14.948Z,57.91
2022-10-05T15:56:19.530Z,58.05
2022-10-05T15:59:02.296Z,58.16
2022-10-05T16:01:33.953Z,58.41
2022-10-05T16:04:35.798Z,58.64
2022-10-05T16:07:28.525Z,59.02
2022-10-05T16:10:15.561Z,59.33
2022-10-05T16:13:02.488Z,59.78
2022-10-05T16:15:48.751Z,59.96
2022-10-05T16:18:41.444Z,60.11
2022-10-05T16:21:41.531Z,60.44
2022-10-05T16:24:28.937Z,60.62
2022-10-05T16:27:10.509Z,60.72
2022-10-05T16:30:03.191Z,60.93
2022-10-05T16:32:39.433Z,61.31
2022-10-05T16:35:29.315Z,61.39
2022-10-05T16:38:14.617Z,61.62
2022-10-05T16:41:13.174Z,61.72
2022-10-05T16:44:09.206Z,62.10
2022-10-05T16:47:25.105Z,62.10
2022-10-05T16:50:13.579Z,62.32
2022-10-05T16:52:46.980Z,62.65
2022-10-05T16:55:32.414Z,62.84
2022-10-05T16:58:05.006Z,62.91
2022-10-05T17:00:58.121Z,63.22
2022-10-05T17:04:03.475Z,63.39
2022-10-05T17:07:00.592Z,63.65
2022-10-05T17:10:14.651Z,64.00
2022-10-05T17:13:14.218Z,64.07
2022-10-05T17:16:15.068Z,64.17
2022-10-05T17:19:10.099Z,64.33
2022-10-05T17:22:00.610Z,64.32
2022-10-05T17:25:18.404Z,64.54
2022-10-05T17:28:15.183Z,64.74
2022-10-05T17:31:14.191Z,65.03
2022-10-05T17:34:30.688Z,65.11
2022-10-05T17:37:32.039Z,65.41
2022-10-05T17:40:01.875Z,65.62
2022-10-05T17:42:30.005Z,65.89
2022-10-05T17:45:14.579Z,66.15
2022-10-05T17:48:03.829Z,66.19
2022-10-05T17:51:04.367Z,66.37
2022-10-05T17:54:06.417Z,66.44
2022-10-05T17:57:04.602Z,66.67
2022-10-05T18:00:01.744Z,66.73
2022-10-05T18:02:36.654Z,66.90
2022-10-05T18:05:16.218Z,67.05
2022-10-05T18:07:48.221Z,67.02
2022-10-05T18:10:29.037Z,67.19
2022-10-05T18:13:00.064Z,67.23
2022-10-05T18:15:28.360Z,67.63
2022-10-05T18:18:19.602Z,67.85
2022-10-05T18:21:11.721Z,67.77
2022-10-05T18:23:58.532Z,67.79
2022-10-05T18:26:46.737Z,67.93
2022-10-05T18:30:03.344Z,68.10
2022-10-05T18:33:28.216Z,68.23
2022-10-05T18:36:14.236Z,68.29
2022-10-05T18:39:09.806Z,68.36
2022-10-05T18:41:49.485Z,68.52
2022-10-05T18:44:44.332Z,68.63
2022-10-05T18:47:48.210Z,68.81
2022-10-05T18:50:26.155Z,69.36
2022-10-05T18:52:57.040Z,69.27
2022-10-05T18:55:41.198Z,69.68
2022-10-05T18:58:14.322Z,69.42
2022-10-05T19:00:45.017Z,69.49
2022-10-05T19:03:51.269Z,69.43
2022-10-05T19:06:27.046Z,69.55
2022-10-05T19:09:27.415Z,70.03
2022-10-05T19:12:20.812Z,70.13
2022-10-05T19:15:29.688Z,70.21
2022-10-05T19:18:09.044Z,70.31
2022-10-05T19:20:54.117Z,70.58
2022-10-05T19:24:02.466Z,70.54
2022-10-05T19:26:51.761Z,70.47
2022-10-05T19:29:47.392Z,70.63
2022-10-05T19:33:06.901Z,70.57
2022-10-05T19:36:08.558Z,70.59
2022-10-05T19:38:59.602Z,70.68
2022-10-05T19:41:55.856Z,70.70
2022-10-05T19:45:11.900Z,70.75
2022-10-05T19:48:02.453Z,70.83
2022-10-05T19:50:34.532Z,70.81
2022-10-05T19:53:12.775Z,70.88
2022-10-05T19:55:43.845Z,71.03
2022-10-05T19:58:25.356Z,70.94
2022-10-05T20:01:06.856Z,71.07
2022-10-05T20:03:38.078Z,71.05
2022-10-05T20:06:09.108Z,71.13
2022-10-05T20:08:50.022Z,71.24
2022-10-05T20:11:23.433Z,71.25
2022-10-05T20:13:55.134Z,71.32
2022-10-05T20:19:51.078Z,71.36
2022-10-05T20:22:33.196Z,71.49
2022-10-05T20:25:28.906Z,71.59
2022-10-05T20:27:57.947Z,71.53
2022-10-05T20:30:29.158Z,71.62
2022-10-05T20:33:04.651Z,71.70
2022-10-05T20:35:32.878Z,71.68
2022-10-05T20:38:01.173Z,71.74
2022-10-05T20:40:30.629Z,71.83
2022-10-05T20:42:59.030Z,71.80
2022-10-05T20:45:27.185Z,71.86
2022-10-05T20:47:55.396Z,71.85
2022-10-05T20:50:23.483Z,71.98
2022-10-05T20:52:51.570Z,71.93
2022-10-05T20:55:20.862Z,71.81
2022-10-05T20:57:48.980Z,71.88
2022-10-05T21:00:17.222Z,71.88
2022-10-05T21:02:46.900Z,72.00
2022-10-05T21:05:18.343Z,71.89
2022-10-05T21:07:46.839Z,71.94
2022-10-05T21:10:15.067Z,71.90
2022-10-05T21:12:43.802Z,72.03
2022-10-05T21:15:12.685Z,72.07
2022-10-05T21:17:40.820Z,71.91
2022-10-05T21:20:11.193Z,72.04
2022-10-05T21:22:39.289Z,72.12
2022-10-05T21:25:09.121Z,72.21
2022-10-05T21:27:37.296Z,72.27
2022-10-05T21:30:06.225Z,72.42
2022-10-05T21:32:34.489Z,72.55
2022-10-05T21:35:02.707Z,72.55
2022-10-05T21:37:30.815Z,72.72
2022-10-05T21:39:58.949Z,72.64
2022-10-05T21:42:27.146Z,72.86
2022-10-05T21:44:55.236Z,72.88
2022-10-05T21:47:23.409Z,72.98
2022-10-05T21:49:53.095Z,73.14
2022-10-05T21:52:21.916Z,73.29
2022-10-05T21:54:50.056Z,73.59
2022-10-05T21:57:18.722Z,73.49
2022-10-05T21:59:47.509Z,73.35
2022-10-05T22:02:15.623Z,73.49
2022-10-05T22:04:43.727Z,73.64
2022-10-05T22:07:20.640Z,73.86
2022-10-05T22:09:50.684Z,73.86
2022-10-05T22:12:20.085Z,73.88
2022-10-05T22:14:48.848Z,73.88
2022-10-05T22:17:24.901Z,74.08
2022-10-05T22:19:55.668Z,74.28
2022-10-05T22:22:25.505Z,74.34
2022-10-05T22:24:54.275Z,74.16
2022-10-05T22:27:24.771Z,74.33
2022-10-05T22:29:54.418Z,74.66
2022-10-05T22:32:22.507Z,74.64
2022-10-05T22:34:51.106Z,74.74
2022-10-05T22:37:19.205Z,75.13
2022-10-05T22:39:48.384Z,74.91
2022-10-05T22:42:16.615Z,75.31
2022-10-05T22:44:44.757Z,75.46
2022-10-05T22:47:13.385Z,75.27
2022-10-05T22:49:41.457Z,75.42
2022-10-05T22:52:09.576Z,75.39
2022-10-05T22:54:37.665Z,75.48
2022-10-05T22:57:05.820Z,75.53
2022-10-05T22:59:33.969Z,75.76
2022-10-05T23:02:02.132Z,75.92
2022-10-05T23:04:30.973Z,75.93
2022-10-05T23:06:59.132Z,75.91
2022-10-05T23:09:27.279Z,75.98
2022-10-05T23:11:55.473Z,76.26
2022-10-05T23:14:24.034Z,76.14
2022-10-05T23:16:52.161Z,76.47
2022-10-05T23:19:20.857Z,76.36
2022-10-05T23:21:49.389Z,76.30
2022-10-05T23:24:17.474Z,76.20
2022-10-05T23:26:45.589Z,76.17
2022-10-05T23:29:13.777Z,76.74
2022-10-05T23:31:41.893Z,76.46
2022-10-05T23:34:09.997Z,76.91
2022-10-05T23:36:38.127Z,76.89
2022-10-05T23:39:06.275Z,77.09
2022-10-05T23:41:34.556Z,77.10
2022-10-05T23:44:02.693Z,76.88
2022-10-05T23:46:30.837Z,76.80
2022-10-05T23:48:58.924Z,76.78
2022-10-05T23:51:27.121Z,76.77
2022-10-05T23:53:55.266Z,76.70
2022-10-05T23:56:23.400Z,76.71
2022-10-05T23:58:51.539Z,76.89
